sensor_id;sensor_type;location;lat;lon;timestamp;P1;durP1;ratioP1;P2;durP2;ratioP2
9689;SDS011;4884;42.614;23.340;2022-11-04T00:01:37;15.33;;;8.50;;
9689;SDS011;4884;42.614;23.340;2022-11-04T00:04:04;13.33;;;8.03;;
9689;SDS011;4884;42.614;23.340;2022-11-04T00:06:30;26.50;;;12.27;;
9689;SDS011;4884;42.614;23.340;2022-11-04T00:08:56;19.57;;;9.13;;
9689;SDS011;4884;42.614;23.340;2022-11-04T00:11:23;13.90;;;8.20;;
9689;SDS011;4884;42.614;23.340;2022-11-04T00:14:13;14.70;;;8.10;;
9689;SDS011;4884;42.614;23.340;2022-11-04T00:16:38;18.40;;;7.03;;
9689;SDS011;4884;42.614;23.340;2022-11-04T00:19:23;10.57;;;7.40;;
9689;SDS011;4884;42.614;23.340;2022-11-04T00:21:48;14.67;;;8.07;;
9689;SDS011;4884;42.614;23.340;2022-11-04T00:24:33;10.97;;;7.37;;
9689;SDS011;4884;42.614;23.340;2022-11-04T00:27:07;21.87;;;8.90;;
9689;SDS011;4884;42.614;23.340;2022-11-04T00:29:52;17.57;;;8.60;;
9689;SDS011;4884;42.614;23.340;2022-11-04T00:32:17;15.40;;;7.43;;
9689;SDS011;4884;42.614;23.340;2022-11-04T00:35:01;24.20;;;9.90;;
9689;SDS011;4884;42.614;23.340;2022-11-04T00:37:26;15.63;;;8.80;;
9689;SDS011;4884;42.614;23.340;2022-11-04T00:39:52;13.83;;;8.57;;
9689;SDS011;4884;42.614;23.340;2022-11-04T00:42:17;18.50;;;9.23;;
9689;SDS011;4884;42.614;23.340;2022-11-04T00:44:43;21.03;;;11.33;;
9689;SDS011;4884;42.614;23.340;2022-11-04T00:47:08;15.37;;;10.20;;
9689;SDS011;4884;42.614;23.340;2022-11-04T00:49:36;20.47;;;10.10;;
9689;SDS011;4884;42.614;23.340;2022-11-04T00:52:01;20.17;;;8.70;;
9689;SDS011;4884;42.614;23.340;2022-11-04T00:54:27;26.30;;;10.27;;
9689;SDS011;4884;42.614;23.340;2022-11-04T00:56:52;33.37;;;13.63;;
9689;SDS011;4884;42.614;23.340;2022-11-04T00:59:18;32.90;;;12.13;;
9689;SDS011;4884;42.614;23.340;2022-11-04T01:01:43;37.00;;;15.90;;
9689;SDS011;4884;42.614;23.340;2022-11-04T01:04:09;26.37;;;12.30;;
9689;SDS011;4884;42.614;23.340;2022-11-04T01:06:34;21.03;;;11.27;;
9689;SDS011;4884;42.614;23.340;2022-11-04T01:09:01;32.87;;;14.90;;
9689;SDS011;4884;42.614;23.340;2022-11-04T01:11:29;30.17;;;12.93;;
9689;SDS011;4884;42.614;23.340;2022-11-04T01:13:55;34.27;;;15.33;;
9689;SDS011;4884;42.614;23.340;2022-11-04T01:16:21;36.13;;;15.40;;
9689;SDS011;4884;42.614;23.340;2022-11-04T01:18:47;14.80;;;8.47;;
9689;SDS011;4884;42.614;23.340;2022-11-04T01:21:13;30.97;;;12.20;;
9689;SDS011;4884;42.614;23.340;2022-11-04T01:23:39;27.10;;;13.43;;
9689;SDS011;4884;42.614;23.340;2022-11-04T01:26:06;38.90;;;14.70;;
9689;SDS011;4884;42.614;23.340;2022-11-04T01:28:33;35.33;;;16.37;;
9689;SDS011;4884;42.614;23.340;2022-11-04T01:30:58;28.93;;;12.83;;
9689;SDS011;4884;42.614;23.340;2022-11-04T01:33:24;22.57;;;12.13;;
9689;SDS011;4884;42.614;23.340;2022-11-04T01:35:49;23.20;;;13.70;;
9689;SDS011;4884;42.614;23.340;2022-11-04T01:38:15;28.00;;;13.43;;
9689;SDS011;4884;42.614;23.340;2022-11-04T01:40:41;25.83;;;11.80;;
9689;SDS011;4884;42.614;23.340;2022-11-04T01:43:13;19.27;;;10.90;;
9689;SDS011;4884;42.614;23.340;2022-11-04T01:45:41;21.67;;;10.87;;
9689;SDS011;4884;42.614;23.340;2022-11-04T01:48:11;18.63;;;10.13;;
9689;SDS011;4884;42.614;23.340;2022-11-04T01:50:41;19.50;;;10.63;;
9689;SDS011;4884;42.614;23.340;2022-11-04T01:53:11;28.87;;;15.40;;
9689;SDS011;4884;42.614;23.340;2022-11-04T01:55:46;24.30;;;13.17;;
9689;SDS011;4884;42.614;23.340;2022-11-04T01:58:16;29.57;;;15.20;;
9689;SDS011;4884;42.614;23.340;2022-11-04T02:00:42;22.63;;;12.53;;
9689;SDS011;4884;42.614;23.340;2022-11-04T02:03:10;22.50;;;11.90;;
9689;SDS011;4884;42.614;23.340;2022-11-04T02:05:37;25.87;;;13.47;;
9689;SDS011;4884;42.614;23.340;2022-11-04T02:08:03;22.13;;;11.47;;
9689;SDS011;4884;42.614;23.340;2022-11-04T02:10:30;19.73;;;10.80;;
9689;SDS011;4884;42.614;23.340;2022-11-04T02:12:56;32.30;;;13.77;;
9689;SDS011;4884;42.614;23.340;2022-11-04T02:15:41;35.27;;;14.57;;
9689;SDS011;4884;42.614;23.340;2022-11-04T02:26:47;29.07;;;14.30;;
9689;SDS011;4884;42.614;23.340;2022-11-04T02:40:24;34.50;;;15.53;;
9689;SDS011;4884;42.614;23.340;2022-11-04T02:42:55;57.43;;;19.03;;
9689;SDS011;4884;42.614;23.340;2022-11-04T02:48:02;56.47;;;19.27;;
9689;SDS011;4884;42.614;23.340;2022-11-04T02:56:25;43.83;;;18.10;;
9689;SDS011;4884;42.614;23.340;2022-11-04T02:58:52;49.60;;;20.17;;
9689;SDS011;4884;42.614;23.340;2022-11-04T03:01:21;28.17;;;14.50;;
9689;SDS011;4884;42.614;23.340;2022-11-04T03:03:48;21.30;;;12.03;;
9689;SDS011;4884;42.614;23.340;2022-11-04T03:06:20;25.20;;;12.63;;
9689;SDS011;4884;42.614;23.340;2022-11-04T03:08:47;22.57;;;10.50;;
9689;SDS011;4884;42.614;23.340;2022-11-04T03:11:20;16.73;;;8.97;;
9689;SDS011;4884;42.614;23.340;2022-11-04T03:14:06;17.17;;;9.23;;
9689;SDS011;4884;42.614;23.340;2022-11-04T03:16:53;20.03;;;9.77;;
9689;SDS011;4884;42.614;23.340;2022-11-04T03:19:26;12.83;;;8.43;;
9689;SDS011;4884;42.614;23.340;2022-11-04T03:21:58;17.17;;;9.07;;
9689;SDS011;4884;42.614;23.340;2022-11-04T03:24:25;12.03;;;8.73;;
9689;SDS011;4884;42.614;23.340;2022-11-04T03:26:52;12.43;;;8.60;;
9689;SDS011;4884;42.614;23.340;2022-11-04T03:29:29;20.83;;;9.07;;
9689;SDS011;4884;42.614;23.340;2022-11-04T03:34:40;18.30;;;8.53;;
9689;SDS011;4884;42.614;23.340;2022-11-04T03:37:05;15.47;;;8.10;;
9689;SDS011;4884;42.614;23.340;2022-11-04T03:39:31;19.00;;;8.57;;
9689;SDS011;4884;42.614;23.340;2022-11-04T03:41:57;13.63;;;9.27;;
9689;SDS011;4884;42.614;23.340;2022-11-04T03:44:24;12.47;;;8.30;;
9689;SDS011;4884;42.614;23.340;2022-11-04T03:46:51;14.17;;;8.83;;
9689;SDS011;4884;42.614;23.340;2022-11-04T03:49:17;12.43;;;8.30;;
9689;SDS011;4884;42.614;23.340;2022-11-04T03:51:44;15.40;;;9.33;;
9689;SDS011;4884;42.614;23.340;2022-11-04T03:54:09;17.53;;;8.53;;
9689;SDS011;4884;42.614;23.340;2022-11-04T03:57:18;11.80;;;8.13;;
9689;SDS011;4884;42.614;23.340;2022-11-04T04:02:26;17.33;;;10.80;;
9689;SDS011;4884;42.614;23.340;2022-11-04T04:07:55;18.10;;;11.53;;
9689;SDS011;4884;42.614;23.340;2022-11-04T04:10:26;17.27;;;11.30;;
9689;SDS011;4884;42.614;23.340;2022-11-04T04:18:36;52.13;;;36.23;;
9689;SDS011;4884;42.614;23.340;2022-11-04T04:21:05;36.97;;;25.67;;
9689;SDS011;4884;42.614;23.340;2022-11-04T04:23:33;25.00;;;18.93;;
9689;SDS011;4884;42.614;23.340;2022-11-04T04:26:18;27.43;;;23.40;;
9689;SDS011;4884;42.614;23.340;2022-11-04T04:29:04;26.77;;;22.40;;
9689;SDS011;4884;42.614;23.340;2022-11-04T04:31:30;100.07;;;66.83;;
9689;SDS011;4884;42.614;23.340;2022-11-04T04:34:29;68.93;;;48.50;;
9689;SDS011;4884;42.614;23.340;2022-11-04T04:37:02;67.23;;;45.20;;
9689;SDS011;4884;42.614;23.340;2022-11-04T04:39:35;75.47;;;53.13;;
9689;SDS011;4884;42.614;23.340;2022-11-04T04:42:23;83.83;;;59.07;;
9689;SDS011;4884;42.614;23.340;2022-11-04T04:45:07;66.53;;;45.47;;
9689;SDS011;4884;42.614;23.340;2022-11-04T04:47:38;40.13;;;26.80;;
9689;SDS011;4884;42.614;23.340;2022-11-04T04:50:05;68.90;;;47.37;;
9689;SDS011;4884;42.614;23.340;2022-11-04T04:52:38;42.07;;;30.00;;
9689;SDS011;4884;42.614;23.340;2022-11-04T04:55:06;37.23;;;25.23;;
9689;SDS011;4884;42.614;23.340;2022-11-04T04:57:32;41.03;;;30.77;;
9689;SDS011;4884;42.614;23.340;2022-11-04T04:59:58;57.43;;;39.63;;
9689;SDS011;4884;42.614;23.340;2022-11-04T05:02:23;71.97;;;46.07;;
9689;SDS011;4884;42.614;23.340;2022-11-04T05:04:48;96.67;;;59.67;;
9689;SDS011;4884;42.614;23.340;2022-11-04T05:07:14;46.00;;;27.97;;
9689;SDS011;4884;42.614;23.340;2022-11-04T05:09:39;71.13;;;46.53;;
9689;SDS011;4884;42.614;23.340;2022-11-04T05:12:05;84.40;;;60.30;;
9689;SDS011;4884;42.614;23.340;2022-11-04T05:14:30;74.33;;;45.77;;
9689;SDS011;4884;42.614;23.340;2022-11-04T05:16:56;53.50;;;37.13;;
9689;SDS011;4884;42.614;23.340;2022-11-04T05:19:21;39.73;;;29.17;;
9689;SDS011;4884;42.614;23.340;2022-11-04T05:21:47;49.47;;;34.67;;
9689;SDS011;4884;42.614;23.340;2022-11-04T05:24:12;25.27;;;14.63;;
9689;SDS011;4884;42.614;23.340;2022-11-04T05:26:38;28.83;;;19.43;;
9689;SDS011;4884;42.614;23.340;2022-11-04T05:29:03;36.03;;;20.37;;
9689;SDS011;4884;42.614;23.340;2022-11-04T05:31:29;35.60;;;26.57;;
9689;SDS011;4884;42.614;23.340;2022-11-04T05:33:54;66.00;;;54.80;;
9689;SDS011;4884;42.614;23.340;2022-11-04T05:36:22;40.73;;;32.33;;
9689;SDS011;4884;42.614;23.340;2022-11-04T05:38:51;53.20;;;39.37;;
9689;SDS011;4884;42.614;23.340;2022-11-04T05:41:19;39.60;;;30.13;;
9689;SDS011;4884;42.614;23.340;2022-11-04T05:43:54;40.23;;;27.10;;
9689;SDS011;4884;42.614;23.340;2022-11-04T05:46:23;28.17;;;20.23;;
9689;SDS011;4884;42.614;23.340;2022-11-04T05:48:49;29.03;;;19.10;;
9689;SDS011;4884;42.614;23.340;2022-11-04T05:51:15;38.87;;;23.67;;
9689;SDS011;4884;42.614;23.340;2022-11-04T05:53:42;25.23;;;19.63;;
9689;SDS011;4884;42.614;23.340;2022-11-04T05:56:07;29.07;;;18.97;;
9689;SDS011;4884;42.614;23.340;2022-11-04T05:58:33;24.93;;;17.57;;
9689;SDS011;4884;42.614;23.340;2022-11-04T06:04:00;74.53;;;40.77;;
9689;SDS011;4884;42.614;23.340;2022-11-04T06:06:30;42.43;;;23.83;;
9689;SDS011;4884;42.614;23.340;2022-11-04T06:08:57;27.67;;;21.07;;
9689;SDS011;4884;42.614;23.340;2022-11-04T06:11:23;34.50;;;21.10;;
9689;SDS011;4884;42.614;23.340;2022-11-04T06:13:52;30.90;;;18.80;;
9689;SDS011;4884;42.614;23.340;2022-11-04T06:16:18;26.73;;;18.43;;
9689;SDS011;4884;42.614;23.340;2022-11-04T06:18:43;34.00;;;19.67;;
9689;SDS011;4884;42.614;23.340;2022-11-04T06:23:37;25.77;;;18.37;;
9689;SDS011;4884;42.614;23.340;2022-11-04T06:26:03;25.60;;;17.40;;
9689;SDS011;4884;42.614;23.340;2022-11-04T06:28:29;24.67;;;16.00;;
9689;SDS011;4884;42.614;23.340;2022-11-04T06:30:55;23.47;;;16.53;;
9689;SDS011;4884;42.614;23.340;2022-11-04T06:33:21;21.07;;;14.77;;
9689;SDS011;4884;42.614;23.340;2022-11-04T06:35:47;21.63;;;16.47;;
9689;SDS011;4884;42.614;23.340;2022-11-04T06:38:12;22.07;;;16.57;;
9689;SDS011;4884;42.614;23.340;2022-11-04T06:40:38;24.90;;;16.07;;
9689;SDS011;4884;42.614;23.340;2022-11-04T06:43:03;18.50;;;16.17;;
9689;SDS011;4884;42.614;23.340;2022-11-04T06:45:28;24.13;;;17.43;;
9689;SDS011;4884;42.614;23.340;2022-11-04T06:47:54;22.47;;;16.80;;
9689;SDS011;4884;42.614;23.340;2022-11-04T06:50:19;23.60;;;16.60;;
9689;SDS011;4884;42.614;23.340;2022-11-04T06:52:45;23.07;;;17.83;;
9689;SDS011;4884;42.614;23.340;2022-11-04T06:55:10;25.83;;;17.30;;
9689;SDS011;4884;42.614;23.340;2022-11-04T06:57:35;24.97;;;18.27;;
9689;SDS011;4884;42.614;23.340;2022-11-04T07:00:01;25.23;;;18.63;;
9689;SDS011;4884;42.614;23.340;2022-11-04T07:02:27;30.00;;;19.77;;
9689;SDS011;4884;42.614;23.340;2022-11-04T07:04:52;25.50;;;20.23;;
9689;SDS011;4884;42.614;23.340;2022-11-04T07:07:18;32.17;;;20.20;;
9689;SDS011;4884;42.614;23.340;2022-11-04T07:09:43;25.83;;;20.10;;
9689;SDS011;4884;42.614;23.340;2022-11-04T07:12:08;28.70;;;19.30;;
9689;SDS011;4884;42.614;23.340;2022-11-04T07:14:34;21.90;;;18.17;;
9689;SDS011;4884;42.614;23.340;2022-11-04T07:16:59;25.63;;;19.57;;
9689;SDS011;4884;42.614;23.340;2022-11-04T07:19:24;25.57;;;20.70;;
9689;SDS011;4884;42.614;23.340;2022-11-04T07:21:50;26.77;;;20.97;;
9689;SDS011;4884;42.614;23.340;2022-11-04T07:24:15;28.80;;;20.50;;
9689;SDS011;4884;42.614;23.340;2022-11-04T07:26:41;23.80;;;20.33;;
9689;SDS011;4884;42.614;23.340;2022-11-04T07:29:06;26.10;;;20.00;;
9689;SDS011;4884;42.614;23.340;2022-11-04T07:31:35;23.80;;;19.33;;
9689;SDS011;4884;42.614;23.340;2022-11-04T07:34:00;31.10;;;21.47;;
9689;SDS011;4884;42.614;23.340;2022-11-04T07:36:27;25.57;;;20.50;;
9689;SDS011;4884;42.614;23.340;2022-11-04T07:38:52;28.53;;;20.60;;
9689;SDS011;4884;42.614;23.340;2022-11-04T07:41:18;24.73;;;19.90;;
9689;SDS011;4884;42.614;23.340;2022-11-04T07:43:47;25.80;;;20.97;;
9689;SDS011;4884;42.614;23.340;2022-11-04T07:46:16;30.00;;;20.70;;
9689;SDS011;4884;42.614;23.340;2022-11-04T07:48:41;27.07;;;21.33;;
9689;SDS011;4884;42.614;23.340;2022-11-04T07:51:08;25.80;;;19.60;;
9689;SDS011;4884;42.614;23.340;2022-11-04T07:53:36;22.90;;;19.60;;
9689;SDS011;4884;42.614;23.340;2022-11-04T07:56:02;29.53;;;20.03;;
9689;SDS011;4884;42.614;23.340;2022-11-04T07:58:28;24.73;;;20.37;;
9689;SDS011;4884;42.614;23.340;2022-11-04T08:01:00;28.67;;;20.67;;
9689;SDS011;4884;42.614;23.340;2022-11-04T08:03:26;29.77;;;22.03;;
9689;SDS011;4884;42.614;23.340;2022-11-04T08:05:56;30.10;;;21.57;;
9689;SDS011;4884;42.614;23.340;2022-11-04T08:08:22;96.37;;;29.40;;
9689;SDS011;4884;42.614;23.340;2022-11-04T08:10:52;30.30;;;22.80;;
9689;SDS011;4884;42.614;23.340;2022-11-04T08:13:31;26.73;;;20.70;;
9689;SDS011;4884;42.614;23.340;2022-11-04T08:16:01;27.67;;;21.67;;
9689;SDS011;4884;42.614;23.340;2022-11-04T08:18:28;28.77;;;21.60;;
9689;SDS011;4884;42.614;23.340;2022-11-04T08:20:55;28.00;;;22.30;;
9689;SDS011;4884;42.614;23.340;2022-11-04T08:23:20;32.87;;;21.53;;
9689;SDS011;4884;42.614;23.340;2022-11-04T08:25:46;29.10;;;21.47;;
9689;SDS011;4884;42.614;23.340;2022-11-04T08:28:11;27.97;;;22.07;;
9689;SDS011;4884;42.614;23.340;2022-11-04T08:30:51;29.17;;;21.57;;
9689;SDS011;4884;42.614;23.340;2022-11-04T08:33:17;25.03;;;20.07;;
9689;SDS011;4884;42.614;23.340;2022-11-04T08:35:43;30.87;;;21.67;;
9689;SDS011;4884;42.614;23.340;2022-11-04T08:38:08;27.13;;;20.30;;
9689;SDS011;4884;42.614;23.340;2022-11-04T08:40:35;27.97;;;20.33;;
9689;SDS011;4884;42.614;23.340;2022-11-04T08:43:00;23.87;;;19.50;;
9689;SDS011;4884;42.614;23.340;2022-11-04T08:45:26;28.30;;;20.83;;
9689;SDS011;4884;42.614;23.340;2022-11-04T08:47:51;25.37;;;19.43;;
9689;SDS011;4884;42.614;23.340;2022-11-04T08:50:17;27.67;;;19.97;;
9689;SDS011;4884;42.614;23.340;2022-11-04T08:52:42;28.33;;;19.27;;
9689;SDS011;4884;42.614;23.340;2022-11-04T08:55:08;23.90;;;18.97;;
9689;SDS011;4884;42.614;23.340;2022-11-04T08:57:34;26.03;;;19.80;;
9689;SDS011;4884;42.614;23.340;2022-11-04T08:59:59;23.27;;;19.47;;
9689;SDS011;4884;42.614;23.340;2022-11-04T09:02:25;24.93;;;18.83;;
9689;SDS011;4884;42.614;23.340;2022-11-04T09:04:50;22.93;;;19.00;;
9689;SDS011;4884;42.614;23.340;2022-11-04T09:07:15;24.70;;;18.20;;
9689;SDS011;4884;42.614;23.340;2022-11-04T09:09:41;24.77;;;19.20;;
9689;SDS011;4884;42.614;23.340;2022-11-04T09:12:08;22.43;;;19.70;;
9689;SDS011;4884;42.614;23.340;2022-11-04T09:14:34;21.87;;;18.23;;
9689;SDS011;4884;42.614;23.340;2022-11-04T09:16:59;24.00;;;18.60;;
9689;SDS011;4884;42.614;23.340;2022-11-04T09:19:25;23.90;;;18.30;;
9689;SDS011;4884;42.614;23.340;2022-11-04T09:21:50;26.10;;;19.00;;
9689;SDS011;4884;42.614;23.340;2022-11-04T09:24:15;23.60;;;17.73;;
9689;SDS011;4884;42.614;23.340;2022-11-04T09:26:41;25.97;;;19.00;;
9689;SDS011;4884;42.614;23.340;2022-11-04T09:29:08;25.07;;;18.63;;
9689;SDS011;4884;42.614;23.340;2022-11-04T09:31:34;25.20;;;18.37;;
9689;SDS011;4884;42.614;23.340;2022-11-04T09:34:00;20.50;;;18.23;;
9689;SDS011;4884;42.614;23.340;2022-11-04T09:36:25;33.87;;;18.20;;
9689;SDS011;4884;42.614;23.340;2022-11-04T09:38:53;21.57;;;18.27;;
9689;SDS011;4884;42.614;23.340;2022-11-04T09:44:07;25.43;;;19.80;;
9689;SDS011;4884;42.614;23.340;2022-11-04T09:46:35;21.63;;;19.33;;
9689;SDS011;4884;42.614;23.340;2022-11-04T09:49:00;23.97;;;18.33;;
9689;SDS011;4884;42.614;23.340;2022-11-04T09:51:27;23.20;;;20.20;;
9689;SDS011;4884;42.614;23.340;2022-11-04T09:54:00;29.43;;;19.67;;
9689;SDS011;4884;42.614;23.340;2022-11-04T09:56:33;25.93;;;20.47;;
9689;SDS011;4884;42.614;23.340;2022-11-04T09:59:01;30.60;;;20.30;;
9689;SDS011;4884;42.614;23.340;2022-11-04T10:01:32;27.47;;;19.67;;
9689;SDS011;4884;42.614;23.340;2022-11-04T10:04:15;25.17;;;18.93;;
9689;SDS011;4884;42.614;23.340;2022-11-04T10:07:02;25.67;;;19.10;;
9689;SDS011;4884;42.614;23.340;2022-11-04T10:18:25;25.07;;;19.70;;
9689;SDS011;4884;42.614;23.340;2022-11-04T10:23:56;26.80;;;21.00;;
9689;SDS011;4884;42.614;23.340;2022-11-04T10:26:30;25.73;;;20.23;;
9689;SDS011;4884;42.614;23.340;2022-11-04T10:29:03;22.80;;;20.07;;
9689;SDS011;4884;42.614;23.340;2022-11-04T10:31:30;23.23;;;19.40;;
9689;SDS011;4884;42.614;23.340;2022-11-04T10:34:16;27.87;;;19.07;;
9689;SDS011;4884;42.614;23.340;2022-11-04T10:36:48;31.33;;;20.33;;
9689;SDS011;4884;42.614;23.340;2022-11-04T10:39:26;25.17;;;20.60;;
9689;SDS011;4884;42.614;23.340;2022-11-04T10:41:54;27.50;;;19.93;;
9689;SDS011;4884;42.614;23.340;2022-11-04T10:44:26;29.20;;;20.63;;
9689;SDS011;4884;42.614;23.340;2022-11-04T10:46:55;27.50;;;19.50;;
9689;SDS011;4884;42.614;23.340;2022-11-04T10:49:38;26.07;;;18.23;;
9689;SDS011;4884;42.614;23.340;2022-11-04T10:52:16;23.03;;;19.53;;
9689;SDS011;4884;42.614;23.340;2022-11-04T10:54:42;25.77;;;18.77;;
9689;SDS011;4884;42.614;23.340;2022-11-04T10:57:16;26.23;;;18.17;;
9689;SDS011;4884;42.614;23.340;2022-11-04T10:59:49;23.17;;;18.13;;
9689;SDS011;4884;42.614;23.340;2022-11-04T11:02:16;29.50;;;19.27;;
9689;SDS011;4884;42.614;23.340;2022-11-04T11:04:42;31.37;;;19.43;;
9689;SDS011;4884;42.614;23.340;2022-11-04T11:07:10;27.27;;;18.30;;
9689;SDS011;4884;42.614;23.340;2022-11-04T11:12:11;27.93;;;19.10;;
9689;SDS011;4884;42.614;23.340;2022-11-04T11:14:54;22.57;;;17.90;;
9689;SDS011;4884;42.614;23.340;2022-11-04T11:19:53;22.80;;;17.40;;
9689;SDS011;4884;42.614;23.340;2022-11-04T11:22:29;28.17;;;19.87;;
9689;SDS011;4884;42.614;23.340;2022-11-04T11:25:12;22.37;;;18.50;;
9689;SDS011;4884;42.614;23.340;2022-11-04T11:30:32;22.20;;;17.95;;
9689;SDS011;4884;42.614;23.340;2022-11-04T11:33:21;29.13;;;17.77;;
9689;SDS011;4884;42.614;23.340;2022-11-04T11:38:29;22.92;;;16.77;;
9689;SDS011;4884;42.614;23.340;2022-11-04T11:41:06;32.17;;;17.65;;
9689;SDS011;4884;42.614;23.340;2022-11-04T11:43:34;26.30;;;19.55;;
9689;SDS011;4884;42.614;23.340;2022-11-04T11:46:01;23.42;;;16.02;;
9689;SDS011;4884;42.614;23.340;2022-11-04T11:48:37;23.42;;;16.38;;
9689;SDS011;4884;42.614;23.340;2022-11-04T11:51:14;23.77;;;16.70;;
9689;SDS011;4884;42.614;23.340;2022-11-04T11:53:56;23.73;;;16.97;;
9689;SDS011;4884;42.614;23.340;2022-11-04T11:59:03;22.67;;;15.97;;
9689;SDS011;4884;42.614;23.340;2022-11-04T12:04:10;23.60;;;18.07;;
9689;SDS011;4884;42.614;23.340;2022-11-04T12:09:35;24.07;;;15.50;;
9689;SDS011;4884;42.614;23.340;2022-11-04T12:17:25;23.50;;;14.47;;
9689;SDS011;4884;42.614;23.340;2022-11-04T12:26:04;26.30;;;15.27;;
9689;SDS011;4884;42.614;23.340;2022-11-04T12:34:19;24.27;;;14.50;;
9689;SDS011;4884;42.614;23.340;2022-11-04T12:37:26;24.10;;;13.80;;
9689;SDS011;4884;42.614;23.340;2022-11-04T12:40:11;20.43;;;14.13;;
9689;SDS011;4884;42.614;23.340;2022-11-04T12:51:00;21.37;;;14.30;;
9689;SDS011;4884;42.614;23.340;2022-11-04T12:56:26;22.13;;;14.17;;
9689;SDS011;4884;42.614;23.340;2022-11-04T12:59:11;25.23;;;13.90;;
9689;SDS011;4884;42.614;23.340;2022-11-04T13:01:53;19.23;;;14.27;;
9689;SDS011;4884;42.614;23.340;2022-11-04T13:04:23;21.30;;;14.37;;
9689;SDS011;4884;42.614;23.340;2022-11-04T13:06:55;22.63;;;14.33;;
9689;SDS011;4884;42.614;23.340;2022-11-04T13:11:51;19.70;;;13.60;;
9689;SDS011;4884;42.614;23.340;2022-11-04T13:14:20;21.90;;;14.13;;
9689;SDS011;4884;42.614;23.340;2022-11-04T13:16:53;23.33;;;14.40;;
9689;SDS011;4884;42.614;23.340;2022-11-04T13:19:27;20.13;;;12.23;;
9689;SDS011;4884;42.614;23.340;2022-11-04T13:22:10;26.97;;;14.10;;
9689;SDS011;4884;42.614;23.340;2022-11-04T13:24:39;39.10;;;14.63;;
9689;SDS011;4884;42.614;23.340;2022-11-04T13:27:23;13.10;;;6.90;;
9689;SDS011;4884;42.614;23.340;2022-11-04T13:29:50;28.67;;;16.27;;
9689;SDS011;4884;42.614;23.340;2022-11-04T13:32:39;16.23;;;7.10;;
9689;SDS011;4884;42.614;23.340;2022-11-04T13:35:31;16.93;;;6.57;;
9689;SDS011;4884;42.614;23.340;2022-11-04T13:38:19;13.90;;;6.23;;
9689;SDS011;4884;42.614;23.340;2022-11-04T13:40:58;83.63;;;15.10;;
9689;SDS011;4884;42.614;23.340;2022-11-04T13:43:30;35.77;;;10.53;;
9689;SDS011;4884;42.614;23.340;2022-11-04T13:48:32;24.33;;;13.77;;
9689;SDS011;4884;42.614;23.340;2022-11-04T13:50:59;24.53;;;14.20;;
9689;SDS011;4884;42.614;23.340;2022-11-04T13:53:47;19.40;;;14.13;;
9689;SDS011;4884;42.614;23.340;2022-11-04T14:01:44;25.07;;;18.00;;
9689;SDS011;4884;42.614;23.340;2022-11-04T14:06:55;54.93;;;33.80;;
9689;SDS011;4884;42.614;23.340;2022-11-04T14:17:59;14.93;;;8.70;;
9689;SDS011;4884;42.614;23.340;2022-11-04T14:22:54;15.60;;;8.47;;
9689;SDS011;4884;42.614;23.340;2022-11-04T14:25:22;9.93;;;5.87;;
9689;SDS011;4884;42.614;23.340;2022-11-04T14:28:00;13.43;;;6.53;;
9689;SDS011;4884;42.614;23.340;2022-11-04T14:38:43;10.80;;;4.30;;
9689;SDS011;4884;42.614;23.340;2022-11-04T14:43:54;4.13;;;3.17;;
9689;SDS011;4884;42.614;23.340;2022-11-04T14:46:24;5.70;;;3.60;;
9689;SDS011;4884;42.614;23.340;2022-11-04T14:48:52;13.17;;;4.80;;
9689;SDS011;4884;42.614;23.340;2022-11-04T14:51:21;12.60;;;6.00;;
9689;SDS011;4884;42.614;23.340;2022-11-04T14:53:52;26.87;;;9.17;;
9689;SDS011;4884;42.614;23.340;2022-11-04T14:56:26;21.73;;;9.93;;
9689;SDS011;4884;42.614;23.340;2022-11-04T14:59:02;44.20;;;13.03;;
9689;SDS011;4884;42.614;23.340;2022-11-04T15:01:36;10.60;;;4.77;;
9689;SDS011;4884;42.614;23.340;2022-11-04T15:04:25;16.23;;;7.40;;
9689;SDS011;4884;42.614;23.340;2022-11-04T15:09:21;38.33;;;32.10;;
9689;SDS011;4884;42.614;23.340;2022-11-04T15:12:05;76.00;;;53.30;;
9689;SDS011;4884;42.614;23.340;2022-11-04T15:14:54;22.93;;;10.43;;
9689;SDS011;4884;42.614;23.340;2022-11-04T15:17:20;22.63;;;12.03;;
9689;SDS011;4884;42.614;23.340;2022-11-04T15:19:51;11.83;;;6.83;;
9689;SDS011;4884;42.614;23.340;2022-11-04T15:22:18;64.40;;;29.40;;
9689;SDS011;4884;42.614;23.340;2022-11-04T15:24:44;20.20;;;10.53;;
9689;SDS011;4884;42.614;23.340;2022-11-04T15:27:11;7.93;;;5.93;;
9689;SDS011;4884;42.614;23.340;2022-11-04T15:29:39;30.97;;;17.17;;
9689;SDS011;4884;42.614;23.340;2022-11-04T15:32:05;10.53;;;6.30;;
9689;SDS011;4884;42.614;23.340;2022-11-04T15:34:32;9.30;;;6.47;;
9689;SDS011;4884;42.614;23.340;2022-11-04T15:36:59;9.00;;;7.47;;
9689;SDS011;4884;42.614;23.340;2022-11-04T15:39:29;36.10;;;21.67;;
9689;SDS011;4884;42.614;23.340;2022-11-04T15:41:57;11.53;;;7.57;;
9689;SDS011;4884;42.614;23.340;2022-11-04T15:44:53;21.13;;;12.67;;
9689;SDS011;4884;42.614;23.340;2022-11-04T15:47:21;28.17;;;15.87;;
9689;SDS011;4884;42.614;23.340;2022-11-04T15:49:51;15.17;;;9.20;;
9689;SDS011;4884;42.614;23.340;2022-11-04T15:52:24;15.13;;;7.60;;
9689;SDS011;4884;42.614;23.340;2022-11-04T15:54:52;8.93;;;6.40;;
9689;SDS011;4884;42.614;23.340;2022-11-04T15:57:22;9.07;;;5.60;;
9689;SDS011;4884;42.614;23.340;2022-11-04T16:02:43;9.20;;;5.27;;
9689;SDS011;4884;42.614;23.340;2022-11-04T16:07:43;13.17;;;6.50;;
9689;SDS011;4884;42.614;23.340;2022-11-04T16:12:58;8.30;;;6.57;;
9689;SDS011;4884;42.614;23.340;2022-11-04T16:15:45;12.30;;;5.27;;
9689;SDS011;4884;42.614;23.340;2022-11-04T16:20:46;10.87;;;5.40;;
9689;SDS011;4884;42.614;23.340;2022-11-04T16:23:12;12.00;;;4.80;;
9689;SDS011;4884;42.614;23.340;2022-11-04T16:25:42;7.07;;;4.70;;
9689;SDS011;4884;42.614;23.340;2022-11-04T16:28:16;6.63;;;4.60;;
9689;SDS011;4884;42.614;23.340;2022-11-04T16:30:54;9.50;;;5.10;;
9689;SDS011;4884;42.614;23.340;2022-11-04T16:33:23;7.80;;;4.57;;
9689;SDS011;4884;42.614;23.340;2022-11-04T16:35:49;8.83;;;5.07;;
9689;SDS011;4884;42.614;23.340;2022-11-04T16:38:14;9.93;;;5.13;;
9689;SDS011;4884;42.614;23.340;2022-11-04T16:40:40;8.07;;;5.73;;
9689;SDS011;4884;42.614;23.340;2022-11-04T16:43:08;11.23;;;5.27;;
9689;SDS011;4884;42.614;23.340;2022-11-04T16:45:34;13.23;;;5.73;;
9689;SDS011;4884;42.614;23.340;2022-11-04T16:48:01;10.70;;;5.50;;
9689;SDS011;4884;42.614;23.340;2022-11-04T16:50:26;10.83;;;6.00;;
9689;SDS011;4884;42.614;23.340;2022-11-04T16:52:52;11.03;;;5.10;;
9689;SDS011;4884;42.614;23.340;2022-11-04T16:55:18;9.47;;;4.90;;
9689;SDS011;4884;42.614;23.340;2022-11-04T16:57:44;10.33;;;5.53;;
9689;SDS011;4884;42.614;23.340;2022-11-04T17:00:23;7.37;;;4.80;;
9689;SDS011;4884;42.614;23.340;2022-11-04T17:02:50;9.93;;;5.20;;
9689;SDS011;4884;42.614;23.340;2022-11-04T17:05:16;11.27;;;5.23;;
9689;SDS011;4884;42.614;23.340;2022-11-04T17:07:42;8.70;;;5.30;;
9689;SDS011;4884;42.614;23.340;2022-11-04T17:10:24;17.57;;;8.87;;
9689;SDS011;4884;42.614;23.340;2022-11-04T17:12:51;20.00;;;13.10;;
9689;SDS011;4884;42.614;23.340;2022-11-04T17:15:16;16.87;;;12.27;;
9689;SDS011;4884;42.614;23.340;2022-11-04T17:17:42;21.87;;;16.40;;
9689;SDS011;4884;42.614;23.340;2022-11-04T17:20:12;23.23;;;15.23;;
9689;SDS011;4884;42.614;23.340;2022-11-04T17:22:38;20.57;;;14.27;;
9689;SDS011;4884;42.614;23.340;2022-11-04T17:25:08;21.67;;;13.13;;
9689;SDS011;4884;42.614;23.340;2022-11-04T17:27:37;28.03;;;14.67;;
9689;SDS011;4884;42.614;23.340;2022-11-04T17:30:05;17.57;;;13.43;;
9689;SDS011;4884;42.614;23.340;2022-11-04T17:32:31;20.27;;;13.57;;